Time;durP1;ratioP1;P1;durP2;ratioP2;P2;SDS_P1;SDS_P2;PMS_P1;PMS_P2;Temp;Humidity;BMP_temperature;BMP_pressure;BME280_temperature;BME280_humidity;BME280_pressure;Samples;Min_cycle;Max_cycle;Signal;HPM_P1;HPM_P2
2023/10/19 00:00:44;;;;;;;2.65;2.35;;;;;;;22.88;57.02;99148.81;5028536;28;20067;-73
2023/10/19 00:03:11;;;;;;;2.83;2.35;;;;;;;22.88;56.99;99154.34;5032527;28;20164;-73
2023/10/19 00:05:37;;;;;;;6.78;2.75;;;;;;;22.88;57.07;99148.81;5045756;28;20066;-73
2023/10/19 00:08:23;;;;;;;2.65;2.33;;;;;;;22.86;57.23;99151.94;5047448;28;20375;-73
2023/10/19 00:11:07;;;;;;;4.47;2.28;;;;;;;22.87;56.93;99136.19;5032433;28;20058;-73
2023/10/19 00:13:35;;;;;;;2.33;2.00;;;;;;;22.88;57.05;99135.00;5031712;28;20032;-73
2023/10/19 00:16:07;;;;;;;4.00;2.30;;;;;;;22.86;57.13;99129.84;5044631;28;20114;-73
2023/10/19 00:18:34;;;;;;;3.15;2.20;;;;;;;22.85;57.37;99136.53;5047995;28;20024;-73
2023/10/19 00:21:10;;;;;;;2.67;2.30;;;;;;;22.84;57.60;99136.88;5030340;28;20105;-73
2023/10/19 00:23:37;;;;;;;2.30;2.00;;;;;;;22.85;57.27;99135.72;5048758;28;21784;-73
2023/10/19 00:26:19;;;;;;;2.80;2.50;;;;;;;22.83;57.60;99143.56;5048739;28;20028;-73
2023/10/19 00:28:45;;;;;;;3.83;2.33;;;;;;;22.82;57.72;99134.47;5036217;28;20039;-72
2023/10/19 00:31:11;;;;;;;2.40;2.20;;;;;;;22.80;57.73;99136.78;5031816;28;20347;-73
2023/10/19 00:33:40;;;;;;;2.63;2.30;;;;;;;22.83;57.80;99146.31;5015841;28;20067;-73
2023/10/19 00:36:13;;;;;;;2.25;1.90;;;;;;;22.86;57.58;99134.59;5034894;28;20036;-73
2023/10/19 00:38:40;;;;;;;2.58;2.20;;;;;;;22.89;57.33;99134.69;5048764;28;20148;-73
2023/10/19 00:43:58;;;;;;;2.83;2.30;;;;;;;22.94;57.37;99125.31;5048354;28;20040;-73
2023/10/19 00:46:31;;;;;;;2.70;2.20;;;;;;;22.96;57.53;99125.00;5047293;28;20045;-73
2023/10/19 00:49:02;;;;;;;2.00;1.80;;;;;;;22.97;57.75;99123.81;5065184;28;20047;-73
2023/10/19 00:54:05;;;;;;;2.30;2.10;;;;;;;22.96;57.47;99119.47;5046721;28;20047;-73
2023/10/19 00:56:34;;;;;;;2.13;1.92;;;;;;;22.95;57.43;99115.88;5047315;28;20023;-73
2023/10/19 00:59:02;;;;;;;2.70;2.10;;;;;;;22.94;57.59;99111.50;5013270;28;20475;-74
2023/10/19 01:01:29;;;;;;;2.78;2.15;;;;;;;22.91;57.74;99113.03;5029252;28;20085;-73
2023/10/19 01:03:58;;;;;;;3.17;2.20;;;;;;;22.90;57.97;99118.91;5032474;28;20378;-73
2023/10/19 01:06:25;;;;;;;2.22;2.03;;;;;;;22.88;58.10;99113.75;5052291;28;20028;-73
2023/10/19 01:08:54;;;;;;;2.53;2.00;;;;;;;22.84;57.86;99117.53;5051099;28;20472;-72
2023/10/19 01:11:20;;;;;;;2.45;2.03;;;;;;;22.83;58.34;99130.56;5037220;28;20024;-72
2023/10/19 01:13:51;;;;;;;3.83;1.98;;;;;;;22.82;58.68;99123.44;5050660;28;20040;-72
2023/10/19 01:16:20;;;;;;;2.70;2.00;;;;;;;22.80;58.71;99128.50;5030476;28;20300;-72
2023/10/19 01:18:55;;;;;;;3.05;2.65;;;;;;;22.79;58.96;99134.38;5018942;28;20470;-72
2023/10/19 01:21:37;;;;;;;2.53;2.10;;;;;;;22.78;59.00;99128.03;5048395;28;20268;-72
2023/10/19 01:24:08;;;;;;;2.92;2.20;;;;;;;22.77;58.95;99129.22;5033343;28;20647;-72
2023/10/19 01:26:37;;;;;;;2.40;1.80;;;;;;;22.76;58.98;99135.88;5031235;28;20377;-72
2023/10/19 01:29:09;;;;;;;2.40;2.20;;;;;;;22.75;59.30;99121.25;5046149;28;20025;-73
2023/10/19 01:31:39;;;;;;;2.10;1.90;;;;;;;22.75;59.20;99123.22;5048658;28;20089;-72
2023/10/19 01:34:09;;;;;;;2.35;2.15;;;;;;;22.72;59.35;99123.91;5032484;28;20032;-73
2023/10/19 01:36:44;;;;;;;1.85;1.70;;;;;;;22.71;59.14;99123.13;5031215;28;21267;-73
2023/10/19 01:39:10;;;;;;;2.10;1.90;;;;;;;22.69;59.56;99121.88;5048758;28;20115;-75
2023/10/19 01:41:37;;;;;;;2.17;1.70;;;;;;;22.69;59.53;99119.09;5048807;28;20635;-76
2023/10/19 01:44:06;;;;;;;2.25;1.88;;;;;;;;;;5048761;28;20439;-74
2023/10/19 01:46:34;;;;;;;2.47;1.70;;;;;;;22.65;60.22;99112.66;5045531;28;20020;-74
2023/10/19 01:49:02;;;;;;;2.20;1.70;;;;;;;22.63;60.29;99113.00;5048202;28;20024;-75
2023/10/19 01:51:29;;;;;;;1.92;1.70;;;;;;;22.62;60.32;99108.63;5030696;28;20109;-75
2023/10/19 01:53:56;;;;;;;3.45;1.60;;;;;;;22.63;60.55;99113.00;5048271;28;20032;-74
2023/10/19 01:56:22;;;;;;;2.15;1.67;;;;;;;22.63;60.63;99109.47;5052469;28;20056;-74
2023/10/19 01:58:51;;;;;;;2.80;1.67;;;;;;;22.63;60.33;99117.75;5048424;28;20033;-74
2023/10/19 02:01:20;;;;;;;1.40;1.30;;;;;;;22.63;60.26;99112.22;5031365;28;20078;-74
2023/10/19 02:03:48;;;;;;;2.47;1.60;;;;;;;22.63;60.66;99117.75;5061420;28;20051;-74
2023/10/19 02:06:18;;;;;;;1.88;1.50;;;;;;;22.64;60.26;99113.84;5047948;28;20745;-74
2023/10/19 02:08:50;;;;;;;2.10;1.45;;;;;;;22.63;60.64;99106.69;5048854;28;20677;-75
2023/10/19 02:11:19;;;;;;;3.13;1.60;;;;;;;22.64;60.40;99111.88;5049682;28;20532;-75
2023/10/19 02:13:51;;;;;;;1.63;1.40;;;;;;;22.64;60.36;99111.88;5048663;28;20038;-74
2023/10/19 02:16:22;;;;;;;2.15;1.30;;;;;;;22.65;60.48;99107.13;5050471;28;20487;-75
2023/10/19 02:18:48;;;;;;;1.77;1.50;;;;;;;22.64;60.38;99100.81;5049745;28;20032;-74
2023/10/19 02:21:13;;;;;;;1.83;1.50;;;;;;;22.64;60.11;99100.81;5047945;28;20048;-75
2023/10/19 02:23:41;;;;;;;1.55;1.45;;;;;;;22.63;60.30;99099.22;5048079;28;20043;-74
2023/10/19 02:26:08;;;;;;;2.50;1.67;;;;;;;22.63;60.54;99090.91;5048742;28;20055;-74
2023/10/19 02:28:38;;;;;;;1.83;1.50;;;;;;;22.62;60.65;99097.59;5034299;28;20506;-74
2023/10/19 02:31:18;;;;;;;1.75;1.33;;;;;;;22.62;60.70;99091.28;5049117;28;20085;-74
2023/10/19 02:33:45;;;;;;;1.75;1.52;;;;;;;22.63;60.61;99101.19;5062629;28;20046;-74
2023/10/19 02:36:13;;;;;;;1.48;1.20;;;;;;;22.62;60.96;99097.59;5033990;28;20593;-74
2023/10/19 02:38:48;;;;;;;2.53;1.42;;;;;;;22.63;60.77;99084.63;5032110;28;20028;-74
2023/10/19 02:41:17;;;;;;;1.40;1.30;;;;;;;22.65;60.50;99088.63;5034139;28;20028;-74
2023/10/19 02:43:46;;;;;;;2.35;1.40;;;;;;;;;;5047865;28;20032;-74
2023/10/19 02:46:13;;;;;;;1.77;1.40;;;;;;;;;;5048246;28;20034;-74
2023/10/19 02:48:38;;;;;;;1.65;1.25;;;;;;;;;;5028706;28;20059;-74
2023/10/19 02:51:10;;;;;;;1.98;1.30;;;;;;;22.68;61.87;99084.34;5030757;28;20042;-74
2023/10/19 02:53:38;;;;;;;2.58;1.42;;;;;;;;;;5047499;28;20032;-74
2023/10/19 02:56:10;;;;;;;1.30;1.20;;;;;;;22.68;61.47;99084.34;5030264;28;20032;-74
2023/10/19 02:58:36;;;;;;;1.10;1.00;;;;;;;22.65;61.78;99091.38;5028030;28;20086;-74
2023/10/19 03:01:01;;;;;;;1.88;1.20;;;;;;;;;;5046180;28;20069;-73
2023/10/19 03:03:29;;;;;;;4.90;1.30;;;;;;;22.64;61.90;99080.69;5046752;28;20566;-73
2023/10/19 03:05:59;;;;;;;1.33;1.10;;;;;;;22.65;61.92;99082.28;5029910;28;20317;-74
2023/10/19 03:08:26;;;;;;;2.05;1.35;;;;;;;22.65;62.21;99079.53;5048313;28;20047;-74
2023/10/19 03:11:03;;;;;;;1.33;1.15;;;;;;;22.66;61.99;99083.91;5044952;28;20499;-74
2023/10/19 03:13:29;;;;;;;2.10;1.27;;;;;;;;;;5033167;28;20499;-74
2023/10/19 03:15:54;;;;;;;1.90;1.10;;;;;;;22.65;62.45;99080.34;5013486;28;20054;-74
2023/10/19 03:18:19;;;;;;;1.20;1.10;;;;;;;22.66;62.44;99089.41;5062992;28;20036;-74
2023/10/19 03:20:45;;;;;;;1.98;1.55;;;;;;;22.69;62.33;99088.72;5028786;28;20056;-74
2023/10/19 03:23:10;;;;;;;2.17;1.20;;;;;;;22.68;62.76;99087.91;5051121;28;20092;-74
2023/10/19 03:28:20;;;;;;;1.93;1.10;;;;;;;22.68;62.56;99074.09;5048505;28;20116;-75
2023/10/19 03:30:47;;;;;;;1.20;1.10;;;;;;;22.66;62.77;99067.31;5049535;28;20035;-74
2023/10/19 03:33:12;;;;;;;1.88;1.23;;;;;;;22.64;63.05;99064.94;5048019;28;20742;-75
2023/10/19 03:35:41;;;;;;;1.90;1.20;;;;;;;22.65;63.30;99058.25;5048212;28;20033;-75
2023/10/19 03:38:14;;;;;;;1.70;1.20;;;;;;;22.66;63.18;99061.81;5062702;28;20447;-74
2023/10/19 03:40:39;;;;;;;1.02;1.00;;;;;;;22.66;63.25;99070.09;5047416;28;20028;-75
2023/10/19 03:43:15;;;;;;;1.08;0.95;;;;;;;22.68;63.41;99074.09;5029208;28;20040;-74
2023/10/19 03:45:46;;;;;;;3.05;1.10;;;;;;;22.70;63.17;99071.00;5048283;28;20073;-75
2023/10/19 03:48:12;;;;;;;1.45;1.10;;;;;;;22.70;63.40;99076.53;5048054;28;20147;-75
2023/10/19 03:50:37;;;;;;;2.15;1.10;;;;;;;22.71;63.67;99078.13;5030129;28;20566;-75
2023/10/19 03:53:04;;;;;;;4.13;1.30;;;;;;;22.70;63.70;99065.50;5028768;28;20044;-74
2023/10/19 03:55:30;;;;;;;1.48;0.80;;;;;;;22.71;63.81;99067.06;5048050;28;20028;-75
2023/10/19 03:57:55;;;;;;;2.03;1.10;;;;;;;22.69;63.59;99061.91;5047537;28;20039;-75
2023/10/19 04:00:28;;;;;;;1.02;0.90;;;;;;;22.69;63.92;99072.16;5047459;28;20042;-75
2023/10/19 04:02:55;;;;;;;2.03;1.10;;;;;;;22.68;63.97;99068.56;5014907;28;20036;-75
2023/10/19 04:05:22;;;;;;;0.93;0.88;;;;;;;22.65;63.92;99071.25;5030550;28;20075;-74
2023/10/19 04:07:50;;;;;;;1.52;1.00;;;;;;;22.65;63.84;99069.28;5046460;28;20044;-74
2023/10/19 04:10:29;;;;;;;1.70;1.10;;;;;;;22.66;64.13;99081.13;5047383;28;20024;-74
2023/10/19 04:12:55;;;;;;;2.03;1.30;;;;;;;22.64;64.44;99077.94;5050381;28;20131;-74
2023/10/19 04:15:21;;;;;;;2.15;1.10;;;;;;;22.63;64.52;99076.31;5044566;28;20543;-74
2023/10/19 04:17:52;;;;;;;2.55;1.20;;;;;;;22.64;64.56;99066.91;5016326;28;20039;-74
2023/10/19 04:22:49;;;;;;;2.13;1.00;;;;;;;22.64;64.42;99073.22;5031277;28;20055;-74
2023/10/19 04:25:16;;;;;;;2.10;1.10;;;;;;;22.66;64.52;99075.59;5048260;28;21322;-75
2023/10/19 04:27:44;;;;;;;3.60;1.10;;;;;;;;;;5045846;28;20028;-74
2023/10/19 04:30:33;;;;;;;1.90;1.10;;;;;;;22.68;64.88;99087.13;5026483;28;20042;-75
2023/10/19 04:33:01;;;;;;;1.70;1.23;;;;;;;22.68;64.54;99074.09;5045894;28;20025;-74
2023/10/19 04:35:30;;;;;;;1.77;1.00;;;;;;;22.65;64.93;99083.09;5046434;28;20046;-75
2023/10/19 04:37:56;;;;;;;2.35;1.40;;;;;;;;;;5049358;28;20531;-75
2023/10/19 04:40:23;;;;;;;1.75;1.00;;;;;;;22.66;64.77;99083.91;5051449;28;20035;-73
2023/10/19 04:42:50;;;;;;;14.52;2.95;;;;;;;22.65;65.91;99077.59;5052053;28;20036;-77
2023/10/19 04:45:15;;;;;;;33.75;2.83;;;;;;;22.72;66.80;99080.53;5050754;28;20157;-78
2023/10/19 04:47:41;;;;;;;13.95;1.95;;;;;;;22.77;67.04;99082.25;5052801;28;20031;-75
2023/10/19 04:50:07;;;;;;;14.82;2.15;;;;;;;22.81;67.15;99074.06;5017832;28;20031;-78
2023/10/19 04:52:33;;;;;;;10.80;1.67;;;;;;;22.85;67.46;99078.53;5049368;28;20032;-78
2023/10/19 04:54:59;;;;;;;12.77;1.70;;;;;;;22.88;67.25;99074.25;5034667;28;20115;-76
2023/10/19 04:57:25;;;;;;;8.77;1.60;;;;;;;22.93;67.57;99082.31;5052128;28;20073;-78
2023/10/19 04:59:51;;;;;;;12.82;1.38;;;;;;;22.96;67.47;99080.78;5035265;28;20032;-78
2023/10/19 05:02:16;;;;;;;5.47;1.40;;;;;;;22.99;67.42;99091.13;5051838;28;20705;-74
2023/10/19 05:04:43;;;;;;;5.45;1.40;;;;;;;23.01;67.49;99097.91;5051171;28;20408;-77
2023/10/19 05:07:12;;;;;;;4.57;1.35;;;;;;;23.04;67.32;99099.16;5016396;28;20672;-76
2023/10/19 05:09:41;;;;;;;6.78;1.50;;;;;;;23.05;67.52;99086.94;5036776;28;20267;-77
2023/10/19 05:12:09;;;;;;;5.35;1.15;;;;;;;23.07;67.21;99098.47;5016227;28;20036;-78
2023/10/19 05:14:35;;;;;;;5.55;1.48;;;;;;;23.07;67.38;99092.94;5050808;28;20020;-74
2023/10/19 05:17:05;;;;;;;6.05;1.50;;;;;;;23.09;67.76;99090.63;5033153;28;20113;-76
2023/10/19 05:19:34;;;;;;;5.50;1.30;;;;;;;23.12;67.83;99092.66;5030130;28;20765;-74
2023/10/19 05:22:01;;;;;;;2.47;1.40;;;;;;;23.12;67.61;99092.66;5050707;28;20116;-78
2023/10/19 05:24:27;;;;;;;2.53;1.40;;;;;;;23.12;67.45;99087.13;5019734;28;20257;-73
2023/10/19 05:26:53;;;;;;;1.75;1.20;;;;;;;23.13;67.68;99091.50;5032454;28;20032;-78
2023/10/19 05:29:19;;;;;;;2.78;1.30;;;;;;;23.13;67.88;99091.50;5031164;28;20063;-72
2023/10/19 05:31:45;;;;;;;4.85;1.30;;;;;;;23.14;68.09;99089.53;5050051;28;20038;-77
2023/10/19 05:34:10;;;;;;;2.22;1.20;;;;;;;23.14;67.71;99090.34;5013574;28;20068;-78
2023/10/19 05:36:35;;;;;;;1.80;1.20;;;;;;;23.16;67.66;99084.47;5047070;28;20234;-78
2023/10/19 05:39:01;;;;;;;3.35;1.20;;;;;;;23.16;67.75;99085.28;5032198;28;20393;-73
2023/10/19 05:41:27;;;;;;;2.05;1.20;;;;;;;23.18;67.98;99083.00;5032388;28;20029;-78
2023/10/19 05:43:53;;;;;;;2.90;1.10;;;;;;;23.19;67.87;99086.56;5047604;28;20043;-77
2023/10/19 05:46:21;;;;;;;2.67;1.30;;;;;;;23.19;68.10;99090.13;5031924;28;20886;-77
2023/10/19 05:48:49;;;;;;;4.35;1.25;;;;;;;23.21;67.73;99078.72;5049237;28;20047;-74
2023/10/19 05:51:14;;;;;;;3.92;1.17;;;;;;;23.22;67.77;99083.09;5050918;28;20028;-78
2023/10/19 05:53:41;;;;;;;3.53;1.40;;;;;;;23.23;67.73;99077.19;5031369;28;20051;-73
2023/10/19 05:56:06;;;;;;;2.15;1.10;;;;;;;23.22;67.83;99074.78;5031037;28;20034;-79
2023/10/19 05:58:32;;;;;;;2.13;1.10;;;;;;;23.23;68.08;99079.16;5031454;28;20040;-79
2023/10/19 06:01:00;;;;;;;3.58;1.33;;;;;;;23.25;68.27;99085.16;5050618;28;20038;-73
2023/10/19 06:03:26;;;;;;;4.38;1.17;;;;;;;23.27;68.16;99087.56;5049885;28;20162;-74
2023/10/19 06:05:54;;;;;;;2.05;1.00;;;;;;;23.27;67.94;99082.03;5033106;28;20040;-73
2023/10/19 06:08:19;;;;;;;3.97;1.38;;;;;;;23.26;67.76;99083.97;5049444;28;20101;-74
2023/10/19 06:10:51;;;;;;;2.17;1.30;;;;;;;23.27;68.28;99082.03;5049759;28;20377;-73
2023/10/19 06:13:16;;;;;;;1.83;1.10;;;;;;;23.28;68.32;99089.16;5050870;28;20479;-73
2023/10/19 06:15:42;;;;;;;5.35;1.20;;;;;;;23.28;68.27;99097.47;5010608;28;20043;-74
2023/10/19 06:18:10;;;;;;;3.05;1.30;;;;;;;23.32;68.07;99106.63;5048719;28;20521;-74
2023/10/19 06:20:36;;;;;;;4.85;1.27;;;;;;;23.36;68.21;99111.09;5049669;28;20039;-72
2023/10/19 06:23:04;;;;;;;3.60;1.35;;;;;;;23.42;68.30;99113.59;5029903;28;21814;-74
2023/10/19 06:25:31;;;;;;;3.03;1.15;;;;;;;23.47;68.12;99116.09;5049765;28;21769;-74
2023/10/19 06:27:57;;;;;;;3.95;1.73;;;;;;;23.54;68.23;99107.97;5050468;28;20093;-74
2023/10/19 06:30:23;;;;;;;1.50;1.15;;;;;;;23.61;68.12;99099.88;5049152;28;20036;-73
2023/10/19 06:32:51;;;;;;;3.30;1.20;;;;;;;23.69;67.86;99106.38;5050181;28;20032;-74
2023/10/19 06:35:17;;;;;;;1.75;1.20;;;;;;;23.76;67.65;99114.84;5050575;28;20032;-74
2023/10/19 06:37:43;;;;;;;2.10;1.17;;;;;;;23.82;67.64;99118.16;5030735;28;20444;-74
2023/10/19 06:40:11;;;;;;;5.50;1.20;;;;;;;23.84;67.80;99115.84;5031521;28;20047;-75
2023/10/19 06:42:37;;;;;;;5.28;1.23;;;;;;;23.88;67.43;99122.25;5065442;28;20039;-76
2023/10/19 06:45:03;;;;;;;3.33;1.10;;;;;;;23.88;67.67;99117.50;5051513;28;20604;-78
2023/10/19 06:47:29;;;;;;;1.38;0.85;;;;;;;23.88;67.84;99120.28;5051056;28;20038;-77
2023/10/19 06:49:55;;;;;;;3.25;1.38;;;;;;;23.88;67.61;99119.50;5036185;28;20024;-78
2023/10/19 06:52:21;;;;;;;3.13;1.10;;;;;;;23.88;68.20;99130.56;5032479;28;20976;-78
2023/10/19 06:54:46;;;;;;;10.68;2.00;;;;;;;23.88;67.86;99122.25;4993417;28;20032;-73
2023/10/19 06:57:12;;;;;;;9.38;1.42;;;;;;;23.91;67.83;99121.56;5013463;28;20595;-73
2023/10/19 06:59:37;;;;;;;6.25;1.40;;;;;;;23.89;67.86;99121.09;5046123;28;20577;-74
2023/10/19 07:02:02;;;;;;;3.85;1.20;;;;;;;23.87;68.21;99123.41;5045656;28;20205;-73
2023/10/19 07:04:29;;;;;;;4.78;1.48;;;;;;;23.84;68.30;99127.69;4999809;28;20680;-74
2023/10/19 07:06:55;;;;;;;6.40;1.33;;;;;;;23.80;68.68;99129.59;5049605;28;20319;-73
2023/10/19 07:09:21;;;;;;;7.78;1.38;;;;;;;23.78;68.34;99129.13;5018885;28;20131;-73
2023/10/19 07:11:46;;;;;;;5.38;1.42;;;;;;;23.76;68.40;99133.41;5032497;28;20369;-73
2023/10/19 07:14:12;;;;;;;4.10;1.40;;;;;;;23.76;68.69;99133.41;5032799;28;20040;-73
2023/10/19 07:16:42;;;;;;;3.80;1.40;;;;;;;23.75;68.75;99132.59;5045748;28;20032;-75
2023/10/19 07:19:09;;;;;;;3.88;1.38;;;;;;;23.74;68.75;99144.84;5030465;28;20220;-74
2023/10/19 07:21:36;;;;;;;5.80;1.20;;;;;;;23.74;68.88;99150.38;5047348;28;20048;-74
2023/10/19 07:24:05;;;;;;;7.68;1.58;;;;;;;23.72;68.64;99134.13;5051957;28;20171;-73
2023/10/19 07:26:33;;;;;;;3.15;1.40;;;;;;;23.70;69.04;99133.69;5032287;28;20467;-73
2023/10/19 07:28:59;;;;;;;6.18;1.30;;;;;;;23.69;68.85;99136.78;5050135;28;21426;-74
2023/10/19 07:31:27;;;;;;;5.00;1.52;;;;;;;23.68;68.99;99137.97;5018201;28;20106;-73
2023/10/19 07:33:55;;;;;;;2.10;1.30;;;;;;;23.65;69.23;99138.69;5049517;28;20064;-73
2023/10/19 07:36:20;;;;;;;5.22;1.50;;;;;;;23.63;69.58;99143.75;5049692;28;20039;-72
2023/10/19 07:38:47;;;;;;;5.75;1.60;;;;;;;23.61;69.62;99141.34;5016520;28;20028;-73
2023/10/19 07:41:13;;;;;;;4.10;1.40;;;;;;;23.57;69.85;99137.69;5030259;28;20053;-75
2023/10/19 07:43:38;;;;;;;4.20;1.58;;;;;;;23.54;69.78;99141.97;5017270;28;20098;-73
2023/10/19 07:46:04;;;;;;;3.78;1.20;;;;;;;23.53;70.02;99154.19;5030527;28;20164;-73
2023/10/19 07:48:29;;;;;;;3.78;1.65;;;;;;;23.50;70.48;99157.66;5030421;28;20062;-73
2023/10/19 07:50:55;;;;;;;3.70;1.30;;;;;;;23.48;70.38;99153.66;5011987;28;20536;-72
2023/10/19 07:53:21;;;;;;;3.75;1.55;;;;;;;23.47;70.35;99152.84;5011900;28;20511;-74
2023/10/19 07:55:47;;;;;;;5.63;1.85;;;;;;;23.46;70.89;99155.94;5030367;28;20028;-74
2023/10/19 07:58:12;;;;;;;3.67;1.50;;;;;;;23.44;70.68;99153.53;5017961;28;20031;-74
2023/10/19 08:00:38;;;;;;;7.78;1.50;;;;;;;23.41;70.61;99148.75;5032823;28;20031;-74
2023/10/19 08:03:05;;;;;;;6.45;1.83;;;;;;;23.40;70.90;99149.91;5047385;28;20032;-75
2023/10/19 08:05:30;;;;;;;4.30;1.67;;;;;;;23.39;71.16;99146.31;4997137;28;20773;-74
2023/10/19 08:07:58;;;;;;;4.50;1.40;;;;;;;23.39;71.32;99142.75;5047743;28;20051;-74
2023/10/19 08:10:25;;;;;;;5.38;1.45;;;;;;;23.38;71.46;99138.38;5030637;28;20040;-72
2023/10/19 08:12:51;;;;;;;2.80;1.27;;;;;;;23.38;71.20;99143.91;5019006;28;20082;-73
2023/10/19 08:15:20;;;;;;;3.30;1.55;;;;;;;23.37;71.25;99136.78;5030792;28;20100;-72
2023/10/19 08:17:47;;;;;;;2.80;1.50;;;;;;;23.35;71.67;99139.91;5038314;28;20040;-73
2023/10/19 08:20:32;;;;;;;4.25;1.58;;;;;;;23.34;71.71;99140.25;5050983;28;20172;-73
2023/10/19 08:23:01;;;;;;;3.38;1.50;;;;;;;23.35;71.38;99139.91;5032890;28;20056;-73
2023/10/19 08:25:27;;;;;;;4.15;1.63;;;;;;;23.35;71.57;99139.09;5053185;28;20345;-72
2023/10/19 08:27:56;;;;;;;3.83;1.60;;;;;;;23.35;71.60;99134.38;5019669;28;20147;-72
2023/10/19 08:30:22;;;;;;;4.75;1.50;;;;;;;23.34;71.96;99135.53;5052696;28;20096;-73
2023/10/19 08:32:48;;;;;;;4.15;1.65;;;;;;;23.35;71.75;99137.13;5037114;28;20437;-73
2023/10/19 08:35:25;;;;;;;2.40;1.33;;;;;;;23.35;71.81;99136.34;5052547;28;20036;-73
2023/10/19 08:37:57;;;;;;;5.25;1.60;;;;;;;23.34;71.77;99135.53;5051258;28;20033;-73
2023/10/19 08:40:24;;;;;;;4.05;1.60;;;;;;;23.34;71.64;99137.50;5033942;28;20044;-73
2023/10/19 08:42:50;;;;;;;4.93;1.55;;;;;;;23.35;71.98;99136.34;5043927;28;20427;-74
2023/10/19 08:45:16;;;;;;;3.13;1.50;;;;;;;23.33;72.15;99130.34;5012887;28;20043;-73
2023/10/19 08:48:01;;;;;;;4.07;1.67;;;;;;;23.34;71.92;99131.97;5049083;28;20031;-74
2023/10/19 08:50:28;;;;;;;;;;;;;;;23.35;72.01;99139.09;5047810;28;21454;-73
2023/10/19 08:52:56;;;;;;;3.78;1.35;;;;;;;23.35;71.85;99133.56;5048186;28;20363;-74
2023/10/19 08:55:22;;;;;;;4.20;2.00;;;;;;;23.35;72.07;99133.56;5046440;28;20575;-74
2023/10/19 08:57:49;;;;;;;4.00;1.55;;;;;;;23.33;71.96;99133.91;5046604;28;20044;-74
2023/10/19 09:00:18;;;;;;;38.38;3.10;;;;;;;23.34;72.62;99135.53;5029902;28;20024;-76
2023/10/19 09:02:47;;;;;;;8.70;1.73;;;;;;;23.35;72.43;99137.13;5032278;28;20040;-76
2023/10/19 09:05:27;;;;;;;13.40;2.00;;;;;;;23.34;72.70;99137.50;5049125;28;20040;-79
2023/10/19 09:07:56;;;;;;;6.00;1.83;;;;;;;23.32;72.87;99129.56;5035876;28;20043;-75
2023/10/19 09:10:26;;;;;;;5.47;1.58;;;;;;;23.31;73.06;99125.19;5045709;28;20067;-78
2023/10/19 09:13:12;;;;;;;10.27;1.73;;;;;;;23.32;73.09;99126.81;5049259;28;20114;-77
2023/10/19 09:15:39;;;;;;;7.30;1.95;;;;;;;23.32;73.35;99123.22;5048251;28;20032;-78
2023/10/19 09:18:18;;;;;;;8.30;1.73;;;;;;;23.33;73.68;99122.84;5013217;28;20050;-77
2023/10/19 09:20:52;;;;;;;5.97;1.80;;;;;;;23.37;73.49;99117.41;5049342;28;20472;-75
2023/10/19 09:23:21;;;;;;;;;;;;;;;23.39;73.43;99121.44;5049417;28;20931;-74
2023/10/19 09:25:54;;;;;;;7.72;1.58;;;;;;;23.41;73.54;99112.81;5051238;28;20322;-71
2023/10/19 09:28:21;;;;;;;6.68;1.80;;;;;;;23.42;73.40;99119.94;5051968;28;20032;-74
2023/10/19 09:30:48;;;;;;;5.07;1.98;;;;;;;23.42;73.97;99106.13;5049939;28;20040;-75
2023/10/19 09:33:17;;;;;;;7.03;1.70;;;;;;;23.42;73.95;99105.31;5032597;28;20119;-76
2023/10/19 09:35:56;;;;;;;8.40;2.05;;;;;;;23.42;73.89;99103.38;5053383;28;21467;-75
2023/10/19 09:38:24;;;;;;;7.40;1.80;;;;;;;23.45;74.05;99110.13;5034880;28;20400;-75
2023/10/19 09:40:52;;;;;;;7.82;1.88;;;;;;;23.46;73.87;99098.72;5050030;28;20796;-76
2023/10/19 09:43:27;;;;;;;10.63;2.17;;;;;;;23.48;73.78;99098.34;5050122;28;20028;-74
2023/10/19 09:45:57;;;;;;;11.20;1.98;;;;;;;23.49;74.05;99091.66;5034416;28;20038;-74
2023/10/19 09:48:23;;;;;;;6.53;2.65;;;;;;;23.50;73.73;99096.03;5050943;28;20114;-74
2023/10/19 09:50:58;;;;;;;11.25;2.20;;;;;;;23.52;73.87;99096.50;5047382;28;20036;-74
2023/10/19 09:53:28;;;;;;;14.27;2.08;;;;;;;23.53;73.68;99106.38;5050217;28;20160;-72
2023/10/19 09:55:57;;;;;;;32.50;4.03;;;;;;;23.58;73.95;99103.38;5034003;28;20039;-81
2023/10/19 09:58:37;;;;;;;20.77;2.50;;;;;;;23.59;73.88;99113.25;5054928;28;20588;-76
2023/10/19 10:01:03;;;;;;;16.48;2.67;;;;;;;23.59;73.48;99106.91;5051076;28;20040;-77
2023/10/19 10:03:45;;;;;;;16.15;2.20;;;;;;;23.58;73.18;99113.59;5064989;28;20063;-77
2023/10/19 10:06:15;;;;;;;11.88;2.20;;;;;;;23.59;72.51;99101.38;5050080;28;20040;-80
2023/10/19 10:08:43;;;;;;;9.60;2.10;;;;;;;23.57;73.08;99101.75;5032719;28;20055;-79
2023/10/19 10:11:20;;;;;;;14.68;2.90;;;;;;;23.56;74.81;99102.91;5049903;28;20043;-78
2023/10/19 10:13:50;;;;;;;23.00;2.88;;;;;;;23.56;75.16;99113.97;5036917;28;20622;-80
2023/10/19 10:16:17;;;;;;;18.13;3.72;;;;;;;23.55;75.61;99110.38;5049221;28;20108;-79
2023/10/19 10:18:44;;;;;;;10.77;2.00;;;;;;;23.54;75.62;99094.97;5050288;28;20580;-77
2023/10/19 10:21:15;;;;;;;10.43;2.28;;;;;;;23.56;76.03;99087.13;5049566;28;20052;-78
2023/10/19 10:23:53;;;;;;;10.98;2.00;;;;;;;23.56;75.81;99086.31;5031955;28;20048;-78
2023/10/19 10:26:19;;;;;;;7.20;2.38;;;;;;;23.55;76.29;99090.25;5048261;28;20040;-78
2023/10/19 10:28:48;;;;;;;11.93;2.47;;;;;;;23.55;75.73;99077.22;5050829;28;20039;-79
2023/10/19 10:31:22;;;;;;;21.50;4.55;;;;;;;23.55;76.18;99096.56;5035714;28;20032;-80
2023/10/19 10:33:51;;;;;;;77.57;7.32;;;;;;;23.58;76.27;99110.84;5053571;28;20036;-81
2023/10/19 10:36:18;;;;;;;71.72;6.32;;;;;;;23.60;75.80;99103.78;5041231;28;20038;-77
2023/10/19 10:38:45;;;;;;;46.08;5.68;;;;;;;23.63;75.62;99099.50;5059664;28;20028;-79
2023/10/19 10:41:10;;;;;;;26.70;4.88;;;;;;;23.64;75.63;99087.28;5000506;28;20377;-80
2023/10/19 10:43:53;;;;;;;20.92;3.83;;;;;;;23.63;75.45;99096.75;5047422;28;20905;-80
2023/10/19 10:46:21;;;;;;;19.83;4.22;;;;;;;23.64;75.05;99084.53;5049139;28;20375;-80
2023/10/19 10:48:48;;;;;;;20.92;3.97;;;;;;;23.64;74.62;99096.41;5016661;28;20177;-78
2023/10/19 10:51:29;;;;;;;16.92;3.58;;;;;;;23.63;74.34;99086.50;5048473;28;20032;-78
2023/10/19 10:53:55;;;;;;;18.45;3.83;;;;;;;23.64;74.42;99084.53;5033951;28;20479;-79
2023/10/19 10:56:23;;;;;;;20.98;3.58;;;;;;;23.63;74.38;99093.97;5015726;28;20113;-79
2023/10/19 10:58:48;;;;;;;23.17;3.92;;;;;;;23.61;73.93;99079.72;5049434;28;20797;-78
2023/10/19 11:01:14;;;;;;;21.42;4.25;;;;;;;23.61;73.79;99074.97;5017071;28;20043;-79
2023/10/19 11:03:42;;;;;;;13.43;3.10;;;;;;;23.60;73.82;99073.38;5048635;28;20722;-79
2023/10/19 11:06:09;;;;;;;21.70;3.55;;;;;;;23.60;73.87;99078.13;5025102;28;20040;-79
2023/10/19 11:08:37;;;;;;;19.70;3.63;;;;;;;23.61;73.81;99083.28;5028094;28;20059;-79
2023/10/19 11:11:10;;;;;;;15.85;3.38;;;;;;;23.64;74.21;99079.00;5029471;28;20032;-79
2023/10/19 11:13:37;;;;;;;11.55;4.05;;;;;;;23.64;74.27;99076.22;5029521;28;20040;-79
2023/10/19 11:16:05;;;;;;;18.65;3.40;;;;;;;23.66;73.78;99076.69;5028835;28;20461;-79
2023/10/19 11:18:43;;;;;;;19.95;3.55;;;;;;;23.67;74.33;99078.28;5030132;28;20031;-79
2023/10/19 11:21:14;;;;;;;10.02;3.20;;;;;;;23.66;73.94;99065.63;5048769;28;20036;-79
2023/10/19 11:23:42;;;;;;;12.50;3.63;;;;;;;23.68;73.88;99066.06;5030058;28;20066;-78
2023/10/19 11:26:09;;;;;;;10.05;3.88;;;;;;;23.68;74.32;99061.34;5048186;28;20024;-80
2023/10/19 11:28:38;;;;;;;11.07;3.50;;;;;;;23.68;74.27;99061.34;5048077;28;20028;-80
2023/10/19 11:31:15;;;;;;;13.88;3.42;;;;;;;23.69;74.00;99056.59;5062954;28;21370;-81
2023/10/19 11:33:43;;;;;;;12.13;3.72;;;;;;;23.69;74.06;99051.88;5032378;28;20031;-80
2023/10/19 11:36:09;;;;;;;9.77;3.30;;;;;;;23.70;74.14;99047.13;5030088;28;20487;-80
2023/10/19 11:38:35;;;;;;;8.65;3.38;;;;;;;23.71;74.31;99046.81;5048815;28;20024;-80
2023/10/19 11:41:03;;;;;;;8.93;3.10;;;;;;;23.72;74.13;99040.09;5028072;28;20311;-80
2023/10/19 11:43:28;;;;;;;12.82;3.63;;;;;;;23.72;74.06;99045.63;5028279;28;20040;-78
2023/10/19 11:45:53;;;;;;;11.07;3.47;;;;;;;23.75;74.28;99046.84;5029128;28;20039;-80
2023/10/19 11:48:19;;;;;;;10.10;3.63;;;;;;;23.75;74.01;99035.78;5047725;28;20064;-80
2023/10/19 11:50:45;;;;;;;10.68;3.63;;;;;;;23.78;74.29;99039.84;5011537;28;20036;-80
2023/10/19 11:53:10;;;;;;;9.82;3.13;;;;;;;23.77;74.45;99033.47;5047677;28;20038;-77